sensor_id;sensor_type;location;lat;lon;timestamp;P1;durP1;ratioP1;P2;durP2;ratioP2
8562;SDS011;16392;52.508;13.468;2022-12-17T00:01:50;320.73;;;61.23;;
8562;SDS011;16392;52.508;13.468;2022-12-17T00:04:36;330.40;;;66.47;;
8562;SDS011;16392;52.508;13.468;2022-12-17T00:07:20;320.93;;;60.33;;
8562;SDS011;16392;52.508;13.468;2022-12-17T00:10:04;322.53;;;61.87;;
8562;SDS011;16392;52.508;13.468;2022-12-17T00:12:50;322.23;;;60.00;;
8562;SDS011;16392;52.508;13.468;2022-12-17T00:15:34;322.47;;;61.90;;
8562;SDS011;16392;52.508;13.468;2022-12-17T00:18:30;330.53;;;68.07;;
8562;SDS011;16392;52.508;13.468;2022-12-17T00:21:16;332.30;;;64.77;;
8562;SDS011;16392;52.508;13.468;2022-12-17T00:24:00;318.27;;;59.67;;
8562;SDS011;16392;52.508;13.468;2022-12-17T00:26:44;320.40;;;61.93;;
8562;SDS011;16392;52.508;13.468;2022-12-17T00:29:28;318.57;;;59.43;;
8562;SDS011;16392;52.508;13.468;2022-12-17T00:32:13;322.03;;;61.53;;
8562;SDS011;16392;52.508;13.468;2022-12-17T00:34:56;327.80;;;64.87;;
8562;SDS011;16392;52.508;13.468;2022-12-17T00:37:44;322.53;;;63.53;;
8562;SDS011;16392;52.508;13.468;2022-12-17T00:40:28;322.17;;;63.00;;
8562;SDS011;16392;52.508;13.468;2022-12-17T00:43:09;317.67;;;61.27;;
8562;SDS011;16392;52.508;13.468;2022-12-17T00:45:55;324.50;;;64.67;;
8562;SDS011;16392;52.508;13.468;2022-12-17T00:48:39;326.33;;;63.40;;
8562;SDS011;16392;52.508;13.468;2022-12-17T00:51:24;319.20;;;62.60;;
8562;SDS011;16392;52.508;13.468;2022-12-17T00:54:10;320.50;;;61.37;;
8562;SDS011;16392;52.508;13.468;2022-12-17T00:56:55;317.13;;;60.10;;
8562;SDS011;16392;52.508;13.468;2022-12-17T00:59:39;319.73;;;58.03;;
8562;SDS011;16392;52.508;13.468;2022-12-17T01:02:23;321.13;;;60.43;;
8562;SDS011;16392;52.508;13.468;2022-12-17T01:05:09;321.13;;;59.00;;
8562;SDS011;16392;52.508;13.468;2022-12-17T01:07:54;320.73;;;61.77;;
8562;SDS011;16392;52.508;13.468;2022-12-17T01:10:51;321.90;;;58.73;;
8562;SDS011;16392;52.508;13.468;2022-12-17T01:13:41;322.53;;;61.40;;
8562;SDS011;16392;52.508;13.468;2022-12-17T01:16:25;322.93;;;63.80;;
8562;SDS011;16392;52.508;13.468;2022-12-17T01:19:10;325.73;;;62.23;;
8562;SDS011;16392;52.508;13.468;2022-12-17T01:21:54;321.60;;;59.77;;
8562;SDS011;16392;52.508;13.468;2022-12-17T01:24:38;320.60;;;63.20;;
8562;SDS011;16392;52.508;13.468;2022-12-17T01:27:24;319.07;;;61.43;;
8562;SDS011;16392;52.508;13.468;2022-12-17T01:30:09;320.63;;;60.10;;
8562;SDS011;16392;52.508;13.468;2022-12-17T01:32:58;323.20;;;59.97;;
8562;SDS011;16392;52.508;13.468;2022-12-17T01:35:44;321.30;;;58.43;;
8562;SDS011;16392;52.508;13.468;2022-12-17T01:38:28;320.37;;;59.23;;
8562;SDS011;16392;52.508;13.468;2022-12-17T01:41:12;323.90;;;62.93;;
8562;SDS011;16392;52.508;13.468;2022-12-17T01:43:58;322.07;;;60.90;;
8562;SDS011;16392;52.508;13.468;2022-12-17T01:46:44;319.17;;;58.67;;
8562;SDS011;16392;52.508;13.468;2022-12-17T01:49:33;323.10;;;60.87;;
8562;SDS011;16392;52.508;13.468;2022-12-17T01:52:18;325.80;;;61.27;;
8562;SDS011;16392;52.508;13.468;2022-12-17T01:55:03;324.67;;;63.23;;
8562;SDS011;16392;52.508;13.468;2022-12-17T01:57:49;322.57;;;60.10;;
8562;SDS011;16392;52.508;13.468;2022-12-17T02:00:35;322.67;;;61.70;;
8562;SDS011;16392;52.508;13.468;2022-12-17T02:03:19;323.60;;;59.27;;
8562;SDS011;16392;52.508;13.468;2022-12-17T02:06:05;323.33;;;62.60;;
8562;SDS011;16392;52.508;13.468;2022-12-17T02:08:56;325.47;;;61.83;;
8562;SDS011;16392;52.508;13.468;2022-12-17T02:11:49;324.37;;;62.13;;
8562;SDS011;16392;52.508;13.468;2022-12-17T02:14:39;322.23;;;61.13;;
8562;SDS011;16392;52.508;13.468;2022-12-17T02:17:29;329.37;;;63.83;;
8562;SDS011;16392;52.508;13.468;2022-12-17T02:20:20;324.03;;;62.73;;
8562;SDS011;16392;52.508;13.468;2022-12-17T02:23:11;322.60;;;59.40;;
8562;SDS011;16392;52.508;13.468;2022-12-17T02:26:05;323.43;;;63.80;;
8562;SDS011;16392;52.508;13.468;2022-12-17T02:28:56;325.27;;;61.73;;
8562;SDS011;16392;52.508;13.468;2022-12-17T02:31:43;323.40;;;63.13;;
8562;SDS011;16392;52.508;13.468;2022-12-17T02:34:29;333.53;;;62.70;;
8562;SDS011;16392;52.508;13.468;2022-12-17T02:37:13;320.63;;;58.70;;
8562;SDS011;16392;52.508;13.468;2022-12-17T02:40:00;328.10;;;63.87;;
8562;SDS011;16392;52.508;13.468;2022-12-17T02:42:44;325.83;;;62.47;;
8562;SDS011;16392;52.508;13.468;2022-12-17T02:45:32;324.53;;;60.63;;
8562;SDS011;16392;52.508;13.468;2022-12-17T02:48:17;320.97;;;59.37;;
8562;SDS011;16392;52.508;13.468;2022-12-17T02:51:01;321.00;;;62.40;;
8562;SDS011;16392;52.508;13.468;2022-12-17T02:53:49;323.10;;;61.47;;
8562;SDS011;16392;52.508;13.468;2022-12-17T02:56:36;321.60;;;60.23;;
8562;SDS011;16392;52.508;13.468;2022-12-17T02:59:20;324.30;;;63.27;;
8562;SDS011;16392;52.508;13.468;2022-12-17T03:02:05;328.17;;;63.23;;
8562;SDS011;16392;52.508;13.468;2022-12-17T03:04:49;323.77;;;63.93;;
8562;SDS011;16392;52.508;13.468;2022-12-17T03:07:34;324.77;;;61.93;;
8562;SDS011;16392;52.508;13.468;2022-12-17T03:10:18;328.13;;;65.07;;
8562;SDS011;16392;52.508;13.468;2022-12-17T03:13:02;321.93;;;60.07;;
8562;SDS011;16392;52.508;13.468;2022-12-17T03:16:05;328.80;;;66.67;;
8562;SDS011;16392;52.508;13.468;2022-12-17T03:18:52;319.70;;;58.93;;
8562;SDS011;16392;52.508;13.468;2022-12-17T03:21:36;323.03;;;59.93;;
8562;SDS011;16392;52.508;13.468;2022-12-17T03:24:21;331.27;;;62.70;;
8562;SDS011;16392;52.508;13.468;2022-12-17T03:27:05;317.00;;;58.90;;
8562;SDS011;16392;52.508;13.468;2022-12-17T03:29:49;322.23;;;63.10;;
8562;SDS011;16392;52.508;13.468;2022-12-17T03:32:33;322.63;;;63.50;;
8562;SDS011;16392;52.508;13.468;2022-12-17T03:35:19;324.23;;;62.50;;
8562;SDS011;16392;52.508;13.468;2022-12-17T03:38:05;320.67;;;63.47;;
8562;SDS011;16392;52.508;13.468;2022-12-17T03:41:01;317.47;;;59.73;;
8562;SDS011;16392;52.508;13.468;2022-12-17T03:43:46;324.73;;;63.73;;
8562;SDS011;16392;52.508;13.468;2022-12-17T03:46:30;319.73;;;61.97;;
8562;SDS011;16392;52.508;13.468;2022-12-17T03:49:14;316.50;;;58.27;;
8562;SDS011;16392;52.508;13.468;2022-12-17T03:52:02;319.10;;;60.43;;
8562;SDS011;16392;52.508;13.468;2022-12-17T03:54:46;319.23;;;62.33;;
8562;SDS011;16392;52.508;13.468;2022-12-17T03:57:31;321.23;;;59.63;;
8562;SDS011;16392;52.508;13.468;2022-12-17T04:00:15;320.17;;;60.87;;
8562;SDS011;16392;52.508;13.468;2022-12-17T04:03:00;319.63;;;58.70;;
8562;SDS011;16392;52.508;13.468;2022-12-17T04:05:44;324.57;;;62.20;;
8562;SDS011;16392;52.508;13.468;2022-12-17T04:08:30;320.53;;;58.70;;
8562;SDS011;16392;52.508;13.468;2022-12-17T04:11:14;321.63;;;60.73;;
8562;SDS011;16392;52.508;13.468;2022-12-17T04:13:58;326.73;;;62.17;;
8562;SDS011;16392;52.508;13.468;2022-12-17T04:16:42;327.33;;;63.00;;
8562;SDS011;16392;52.508;13.468;2022-12-17T04:19:27;326.63;;;75.97;;
8562;SDS011;16392;52.508;13.468;2022-12-17T04:22:11;321.07;;;60.17;;
8562;SDS011;16392;52.508;13.468;2022-12-17T04:24:57;320.83;;;60.27;;
8562;SDS011;16392;52.508;13.468;2022-12-17T04:27:41;321.07;;;61.70;;
8562;SDS011;16392;52.508;13.468;2022-12-17T04:30:25;320.23;;;60.70;;
8562;SDS011;16392;52.508;13.468;2022-12-17T04:33:10;320.30;;;58.57;;
8562;SDS011;16392;52.508;13.468;2022-12-17T04:35:54;315.90;;;57.77;;
8562;SDS011;16392;52.508;13.468;2022-12-17T04:38:38;321.73;;;61.37;;
8562;SDS011;16392;52.508;13.468;2022-12-17T04:41:24;322.30;;;63.30;;
8562;SDS011;16392;52.508;13.468;2022-12-17T04:44:20;320.30;;;61.60;;
8562;SDS011;16392;52.508;13.468;2022-12-17T04:47:04;321.00;;;59.87;;
8562;SDS011;16392;52.508;13.468;2022-12-17T04:49:48;320.60;;;59.37;;
8562;SDS011;16392;52.508;13.468;2022-12-17T04:52:33;324.77;;;62.87;;
8562;SDS011;16392;52.508;13.468;2022-12-17T04:55:17;321.37;;;64.30;;
8562;SDS011;16392;52.508;13.468;2022-12-17T04:58:03;323.50;;;64.33;;
8562;SDS011;16392;52.508;13.468;2022-12-17T05:00:49;321.90;;;61.40;;
8562;SDS011;16392;52.508;13.468;2022-12-17T05:03:34;320.30;;;61.47;;
8562;SDS011;16392;52.508;13.468;2022-12-17T05:06:18;316.17;;;59.20;;
8562;SDS011;16392;52.508;13.468;2022-12-17T05:09:02;331.43;;;63.30;;
8562;SDS011;16392;52.508;13.468;2022-12-17T05:11:46;321.63;;;59.07;;
8562;SDS011;16392;52.508;13.468;2022-12-17T05:14:43;320.60;;;63.80;;
8562;SDS011;16392;52.508;13.468;2022-12-17T05:17:27;319.83;;;59.83;;
8562;SDS011;16392;52.508;13.468;2022-12-17T05:20:11;321.00;;;60.37;;
8562;SDS011;16392;52.508;13.468;2022-12-17T05:23:02;319.63;;;61.00;;
8562;SDS011;16392;52.508;13.468;2022-12-17T05:25:48;318.50;;;59.43;;
8562;SDS011;16392;52.508;13.468;2022-12-17T05:28:32;318.10;;;58.67;;
8562;SDS011;16392;52.508;13.468;2022-12-17T05:31:32;318.83;;;58.87;;
8562;SDS011;16392;52.508;13.468;2022-12-17T05:34:16;318.40;;;58.33;;
8562;SDS011;16392;52.508;13.468;2022-12-17T05:37:00;324.47;;;62.03;;
8562;SDS011;16392;52.508;13.468;2022-12-17T05:39:44;323.53;;;63.93;;
8562;SDS011;16392;52.508;13.468;2022-12-17T05:42:28;319.47;;;58.43;;
8562;SDS011;16392;52.508;13.468;2022-12-17T05:45:13;321.40;;;64.80;;
8562;SDS011;16392;52.508;13.468;2022-12-17T05:47:58;318.50;;;60.60;;
8562;SDS011;16392;52.508;13.468;2022-12-17T05:50:47;323.80;;;69.30;;
8562;SDS011;16392;52.508;13.468;2022-12-17T05:53:32;317.50;;;60.37;;
8562;SDS011;16392;52.508;13.468;2022-12-17T05:56:16;321.73;;;61.47;;
8562;SDS011;16392;52.508;13.468;2022-12-17T05:58:59;322.40;;;62.53;;
8562;SDS011;16392;52.508;13.468;2022-12-17T06:01:43;320.30;;;60.40;;
8562;SDS011;16392;52.508;13.468;2022-12-17T06:04:29;320.97;;;59.83;;
8562;SDS011;16392;52.508;13.468;2022-12-17T06:07:13;317.90;;;59.03;;
8562;SDS011;16392;52.508;13.468;2022-12-17T06:09:58;322.57;;;60.20;;
8562;SDS011;16392;52.508;13.468;2022-12-17T06:12:42;318.43;;;58.70;;
8562;SDS011;16392;52.508;13.468;2022-12-17T06:15:26;322.57;;;60.53;;
8562;SDS011;16392;52.508;13.468;2022-12-17T06:18:11;320.67;;;61.30;;
8562;SDS011;16392;52.508;13.468;2022-12-17T06:21:01;320.80;;;59.67;;
8562;SDS011;16392;52.508;13.468;2022-12-17T06:23:46;321.80;;;59.70;;
8562;SDS011;16392;52.508;13.468;2022-12-17T06:26:30;318.60;;;59.60;;
8562;SDS011;16392;52.508;13.468;2022-12-17T06:29:14;324.60;;;64.20;;
8562;SDS011;16392;52.508;13.468;2022-12-17T06:31:58;318.43;;;59.00;;
8562;SDS011;16392;52.508;13.468;2022-12-17T06:34:42;319.17;;;60.23;;
8562;SDS011;16392;52.508;13.468;2022-12-17T06:37:28;322.77;;;63.00;;
8562;SDS011;16392;52.508;13.468;2022-12-17T06:40:12;322.13;;;65.00;;
8562;SDS011;16392;52.508;13.468;2022-12-17T06:42:56;343.93;;;65.93;;
8562;SDS011;16392;52.508;13.468;2022-12-17T06:45:41;327.87;;;62.37;;
8562;SDS011;16392;52.508;13.468;2022-12-17T06:48:25;319.17;;;61.43;;
8562;SDS011;16392;52.508;13.468;2022-12-17T06:51:09;314.13;;;59.67;;
8562;SDS011;16392;52.508;13.468;2022-12-17T06:53:55;322.37;;;64.20;;
8562;SDS011;16392;52.508;13.468;2022-12-17T06:56:39;316.73;;;63.53;;
8562;SDS011;16392;52.508;13.468;2022-12-17T06:59:24;318.33;;;62.83;;
8562;SDS011;16392;52.508;13.468;2022-12-17T07:02:08;311.63;;;58.03;;
8562;SDS011;16392;52.508;13.468;2022-12-17T07:04:54;315.13;;;59.43;;
8562;SDS011;16392;52.508;13.468;2022-12-17T07:07:38;317.67;;;61.93;;
8562;SDS011;16392;52.508;13.468;2022-12-17T07:10:24;313.70;;;62.90;;
8562;SDS011;16392;52.508;13.468;2022-12-17T07:13:09;317.47;;;60.93;;
8562;SDS011;16392;52.508;13.468;2022-12-17T07:15:53;316.27;;;59.43;;
8562;SDS011;16392;52.508;13.468;2022-12-17T07:18:39;316.50;;;61.50;;
8562;SDS011;16392;52.508;13.468;2022-12-17T07:21:23;312.93;;;58.93;;
8562;SDS011;16392;52.508;13.468;2022-12-17T07:24:07;314.17;;;58.27;;
8562;SDS011;16392;52.508;13.468;2022-12-17T07:26:53;316.10;;;60.10;;
8562;SDS011;16392;52.508;13.468;2022-12-17T07:29:38;316.63;;;60.97;;
8562;SDS011;16392;52.508;13.468;2022-12-17T07:32:22;315.50;;;59.07;;
8562;SDS011;16392;52.508;13.468;2022-12-17T07:35:06;313.47;;;57.70;;
8562;SDS011;16392;52.508;13.468;2022-12-17T07:37:56;315.43;;;57.67;;
8562;SDS011;16392;52.508;13.468;2022-12-17T07:40:42;317.40;;;61.73;;
8562;SDS011;16392;52.508;13.468;2022-12-17T07:43:28;316.50;;;62.70;;
8562;SDS011;16392;52.508;13.468;2022-12-17T07:46:12;315.50;;;58.33;;
8562;SDS011;16392;52.508;13.468;2022-12-17T07:48:56;321.87;;;60.53;;
8562;SDS011;16392;52.508;13.468;2022-12-17T07:51:41;317.97;;;60.03;;
8562;SDS011;16392;52.508;13.468;2022-12-17T07:54:25;316.97;;;59.53;;
8562;SDS011;16392;52.508;13.468;2022-12-17T07:57:09;320.47;;;62.63;;
8562;SDS011;16392;52.508;13.468;2022-12-17T07:59:55;322.77;;;60.40;;
8562;SDS011;16392;52.508;13.468;2022-12-17T08:02:39;320.30;;;58.23;;
8562;SDS011;16392;52.508;13.468;2022-12-17T08:05:24;320.13;;;61.00;;
8562;SDS011;16392;52.508;13.468;2022-12-17T08:08:07;320.47;;;64.77;;
8562;SDS011;16392;52.508;13.468;2022-12-17T08:10:54;322.43;;;63.90;;
8562;SDS011;16392;52.508;13.468;2022-12-17T08:13:39;320.37;;;61.40;;
8562;SDS011;16392;52.508;13.468;2022-12-17T08:16:24;318.97;;;58.93;;
8562;SDS011;16392;52.508;13.468;2022-12-17T08:19:11;318.97;;;58.63;;
8562;SDS011;16392;52.508;13.468;2022-12-17T08:21:56;323.30;;;60.47;;
8562;SDS011;16392;52.508;13.468;2022-12-17T08:24:41;320.40;;;60.80;;
8562;SDS011;16392;52.508;13.468;2022-12-17T08:27:26;322.77;;;61.23;;
8562;SDS011;16392;52.508;13.468;2022-12-17T08:30:10;330.00;;;75.90;;
8562;SDS011;16392;52.508;13.468;2022-12-17T08:32:56;322.63;;;61.10;;
8562;SDS011;16392;52.508;13.468;2022-12-17T08:35:49;322.13;;;58.57;;
8562;SDS011;16392;52.508;13.468;2022-12-17T08:38:34;323.93;;;60.50;;
8562;SDS011;16392;52.508;13.468;2022-12-17T08:41:18;322.30;;;61.10;;
8562;SDS011;16392;52.508;13.468;2022-12-17T08:44:03;323.50;;;60.67;;
8562;SDS011;16392;52.508;13.468;2022-12-17T08:46:47;325.00;;;58.87;;
8562;SDS011;16392;52.508;13.468;2022-12-17T08:49:33;326.30;;;61.10;;
8562;SDS011;16392;52.508;13.468;2022-12-17T08:52:17;325.97;;;59.73;;
8562;SDS011;16392;52.508;13.468;2022-12-17T08:55:01;326.83;;;63.30;;
8562;SDS011;16392;52.508;13.468;2022-12-17T08:57:53;326.47;;;59.27;;
8562;SDS011;16392;52.508;13.468;2022-12-17T09:00:38;324.57;;;60.03;;
8562;SDS011;16392;52.508;13.468;2022-12-17T09:03:23;329.20;;;63.83;;
8562;SDS011;16392;52.508;13.468;2022-12-17T09:06:09;331.07;;;62.70;;
8562;SDS011;16392;52.508;13.468;2022-12-17T09:08:53;324.07;;;58.67;;
8562;SDS011;16392;52.508;13.468;2022-12-17T09:11:40;329.07;;;60.33;;
8562;SDS011;16392;52.508;13.468;2022-12-17T09:14:24;326.90;;;60.87;;
8562;SDS011;16392;52.508;13.468;2022-12-17T09:17:08;328.67;;;60.90;;
8562;SDS011;16392;52.508;13.468;2022-12-17T09:19:52;330.43;;;61.37;;
8562;SDS011;16392;52.508;13.468;2022-12-17T09:22:38;331.63;;;59.83;;
8562;SDS011;16392;52.508;13.468;2022-12-17T09:25:22;333.07;;;63.53;;
8562;SDS011;16392;52.508;13.468;2022-12-17T09:28:06;332.70;;;60.67;;
8562;SDS011;16392;52.508;13.468;2022-12-17T09:30:50;330.13;;;59.03;;
8562;SDS011;16392;52.508;13.468;2022-12-17T09:33:35;329.83;;;62.20;;
8562;SDS011;16392;52.508;13.468;2022-12-17T09:36:21;334.20;;;68.40;;
8562;SDS011;16392;52.508;13.468;2022-12-17T09:39:06;333.10;;;61.83;;
8562;SDS011;16392;52.508;13.468;2022-12-17T09:41:52;327.93;;;61.33;;
8562;SDS011;16392;52.508;13.468;2022-12-17T09:44:46;331.63;;;66.03;;
8562;SDS011;16392;52.508;13.468;2022-12-17T09:47:37;329.53;;;59.83;;
8562;SDS011;16392;52.508;13.468;2022-12-17T09:50:27;332.47;;;62.50;;
8562;SDS011;16392;52.508;13.468;2022-12-17T09:53:16;329.23;;;64.93;;
8562;SDS011;16392;52.508;13.468;2022-12-17T09:56:05;341.43;;;69.90;;
8562;SDS011;16392;52.508;13.468;2022-12-17T09:58:59;330.50;;;65.83;;
8562;SDS011;16392;52.508;13.468;2022-12-17T10:01:43;324.57;;;61.70;;
8562;SDS011;16392;52.508;13.468;2022-12-17T10:04:39;327.60;;;64.83;;
8562;SDS011;16392;52.508;13.468;2022-12-17T10:07:30;328.00;;;65.87;;
8562;SDS011;16392;52.508;13.468;2022-12-17T10:10:17;328.17;;;69.70;;
8562;SDS011;16392;52.508;13.468;2022-12-17T10:13:12;324.07;;;64.17;;
8562;SDS011;16392;52.508;13.468;2022-12-17T10:15:58;321.90;;;60.17;;
8562;SDS011;16392;52.508;13.468;2022-12-17T10:18:43;326.90;;;63.37;;
8562;SDS011;16392;52.508;13.468;2022-12-17T10:21:29;326.43;;;61.00;;
8562;SDS011;16392;52.508;13.468;2022-12-17T10:24:14;333.77;;;75.17;;
8562;SDS011;16392;52.508;13.468;2022-12-17T10:27:06;330.00;;;68.23;;
8562;SDS011;16392;52.508;13.468;2022-12-17T10:29:55;328.07;;;63.47;;
8562;SDS011;16392;52.508;13.468;2022-12-17T10:32:40;335.00;;;63.23;;
8562;SDS011;16392;52.508;13.468;2022-12-17T10:35:39;327.93;;;63.10;;
8562;SDS011;16392;52.508;13.468;2022-12-17T10:38:23;329.30;;;64.20;;
8562;SDS011;16392;52.508;13.468;2022-12-17T10:41:20;329.63;;;62.83;;
8562;SDS011;16392;52.508;13.468;2022-12-17T10:44:19;327.63;;;64.60;;
8562;SDS011;16392;52.508;13.468;2022-12-17T10:47:09;326.03;;;61.13;;
8562;SDS011;16392;52.508;13.468;2022-12-17T10:49:55;331.33;;;60.27;;
8562;SDS011;16392;52.508;13.468;2022-12-17T10:52:42;330.27;;;60.47;;
8562;SDS011;16392;52.508;13.468;2022-12-17T10:55:27;328.40;;;63.40;;
8562;SDS011;16392;52.508;13.468;2022-12-17T10:58:20;327.80;;;60.23;;
8562;SDS011;16392;52.508;13.468;2022-12-17T11:01:06;329.63;;;61.97;;
8562;SDS011;16392;52.508;13.468;2022-12-17T11:03:55;326.97;;;59.30;;
8562;SDS011;16392;52.508;13.468;2022-12-17T11:06:43;334.93;;;63.60;;
8562;SDS011;16392;52.508;13.468;2022-12-17T11:09:38;326.97;;;62.27;;
8562;SDS011;16392;52.508;13.468;2022-12-17T11:12:27;329.37;;;60.93;;
8562;SDS011;16392;52.508;13.468;2022-12-17T11:15:17;329.77;;;62.67;;
8562;SDS011;16392;52.508;13.468;2022-12-17T11:18:04;330.50;;;60.97;;
8562;SDS011;16392;52.508;13.468;2022-12-17T11:20:56;333.10;;;67.03;;
8562;SDS011;16392;52.508;13.468;2022-12-17T11:23:47;328.07;;;59.93;;
8562;SDS011;16392;52.508;13.468;2022-12-17T11:26:34;329.87;;;61.10;;
8562;SDS011;16392;52.508;13.468;2022-12-17T11:29:20;331.13;;;64.80;;
8562;SDS011;16392;52.508;13.468;2022-12-17T11:32:09;330.13;;;61.43;;
8562;SDS011;16392;52.508;13.468;2022-12-17T11:35:13;330.30;;;64.53;;
8562;SDS011;16392;52.508;13.468;2022-12-17T11:38:06;330.77;;;63.23;;
8562;SDS011;16392;52.508;13.468;2022-12-17T11:41:00;331.03;;;59.93;;
8562;SDS011;16392;52.508;13.468;2022-12-17T11:43:52;329.13;;;60.17;;
8562;SDS011;16392;52.508;13.468;2022-12-17T11:46:43;328.77;;;60.13;;
8562;SDS011;16392;52.508;13.468;2022-12-17T11:49:34;333.53;;;59.90;;
8562;SDS011;16392;52.508;13.468;2022-12-17T11:52:27;331.60;;;62.47;;
8562;SDS011;16392;52.508;13.468;2022-12-17T11:55:18;336.07;;;66.00;;
8562;SDS011;16392;52.508;13.468;2022-12-17T11:58:10;334.43;;;68.70;;
8562;SDS011;16392;52.508;13.468;2022-12-17T12:01:07;331.07;;;62.40;;
8562;SDS011;16392;52.508;13.468;2022-12-17T12:04:02;331.20;;;63.80;;
8562;SDS011;16392;52.508;13.468;2022-12-17T12:06:59;326.53;;;60.90;;
8562;SDS011;16392;52.508;13.468;2022-12-17T12:09:49;329.87;;;61.77;;
8562;SDS011;16392;52.508;13.468;2022-12-17T12:12:43;329.97;;;61.40;;
8562;SDS011;16392;52.508;13.468;2022-12-17T12:15:39;334.80;;;65.60;;
8562;SDS011;16392;52.508;13.468;2022-12-17T12:18:32;332.70;;;62.57;;
8562;SDS011;16392;52.508;13.468;2022-12-17T12:21:28;335.53;;;65.90;;
8562;SDS011;16392;52.508;13.468;2022-12-17T12:24:36;337.77;;;62.43;;
8562;SDS011;16392;52.508;13.468;2022-12-17T12:27:36;336.07;;;66.33;;
8562;SDS011;16392;52.508;13.468;2022-12-17T12:30:28;334.63;;;66.47;;
8562;SDS011;16392;52.508;13.468;2022-12-17T12:33:22;334.73;;;62.53;;
8562;SDS011;16392;52.508;13.468;2022-12-17T12:36:16;335.03;;;66.33;;
8562;SDS011;16392;52.508;13.468;2022-12-17T12:39:03;333.90;;;63.70;;
8562;SDS011;16392;52.508;13.468;2022-12-17T12:41:53;335.97;;;65.47;;
8562;SDS011;16392;52.508;13.468;2022-12-17T12:44:43;337.27;;;64.33;;
8562;SDS011;16392;52.508;13.468;2022-12-17T12:47:36;332.60;;;63.77;;
8562;SDS011;16392;52.508;13.468;2022-12-17T12:50:32;332.00;;;61.73;;
8562;SDS011;16392;52.508;13.468;2022-12-17T12:53:24;330.03;;;60.00;;
8562;SDS011;16392;52.508;13.468;2022-12-17T12:56:23;333.47;;;62.83;;
8562;SDS011;16392;52.508;13.468;2022-12-17T12:59:19;328.87;;;61.97;;
8562;SDS011;16392;52.508;13.468;2022-12-17T13:05:24;330.40;;;61.40;;
8562;SDS011;16392;52.508;13.468;2022-12-17T13:08:02;331.77;;;63.47;;
8562;SDS011;16392;52.508;13.468;2022-12-17T13:10:42;332.27;;;65.93;;
8562;SDS011;16392;52.508;13.468;2022-12-17T13:13:10;337.00;;;70.13;;
8562;SDS011;16392;52.508;13.468;2022-12-17T13:15:42;332.73;;;62.43;;
8562;SDS011;16392;52.508;13.468;2022-12-17T13:18:14;334.63;;;67.97;;
8562;SDS011;16392;52.508;13.468;2022-12-17T13:20:56;330.37;;;62.90;;
8562;SDS011;16392;52.508;13.468;2022-12-17T13:23:26;328.80;;;63.97;;
8562;SDS011;16392;52.508;13.468;2022-12-17T13:26:02;332.30;;;65.30;;
8562;SDS011;16392;52.508;13.468;2022-12-17T13:28:41;328.30;;;63.77;;
8562;SDS011;16392;52.508;13.468;2022-12-17T13:31:13;331.90;;;67.23;;
8562;SDS011;16392;52.508;13.468;2022-12-17T13:33:43;334.10;;;68.07;;
8562;SDS011;16392;52.508;13.468;2022-12-17T13:36:16;335.83;;;62.53;;
8562;SDS011;16392;52.508;13.468;2022-12-17T13:38:49;331.73;;;64.53;;
8562;SDS011;16392;52.508;13.468;2022-12-17T13:41:25;327.07;;;59.93;;
8562;SDS011;16392;52.508;13.468;2022-12-17T13:43:54;329.43;;;63.43;;
8562;SDS011;16392;52.508;13.468;2022-12-17T13:46:24;330.07;;;65.60;;
8562;SDS011;16392;52.508;13.468;2022-12-17T13:48:53;329.93;;;64.50;;
8562;SDS011;16392;52.508;13.468;2022-12-17T13:51:23;329.07;;;66.50;;
8562;SDS011;16392;52.508;13.468;2022-12-17T13:53:52;325.97;;;59.57;;
8562;SDS011;16392;52.508;13.468;2022-12-17T13:56:21;326.93;;;63.70;;
8562;SDS011;16392;52.508;13.468;2022-12-17T13:58:49;328.60;;;62.43;;
8562;SDS011;16392;52.508;13.468;2022-12-17T14:01:16;327.77;;;63.63;;
8562;SDS011;16392;52.508;13.468;2022-12-17T14:03:48;329.13;;;64.73;;
8562;SDS011;16392;52.508;13.468;2022-12-17T14:06:16;326.83;;;61.33;;
8562;SDS011;16392;52.508;13.468;2022-12-17T14:08:44;326.37;;;63.07;;
8562;SDS011;16392;52.508;13.468;2022-12-17T14:11:13;326.10;;;60.83;;
8562;SDS011;16392;52.508;13.468;2022-12-17T14:13:59;324.80;;;60.30;;
8562;SDS011;16392;52.508;13.468;2022-12-17T14:16:26;327.70;;;62.27;;
8562;SDS011;16392;52.508;13.468;2022-12-17T14:18:55;324.97;;;59.77;;
8562;SDS011;16392;52.508;13.468;2022-12-17T14:21:23;322.93;;;63.77;;
8562;SDS011;16392;52.508;13.468;2022-12-17T14:23:52;326.73;;;67.40;;
8562;SDS011;16392;52.508;13.468;2022-12-17T14:26:20;325.07;;;65.90;;
8562;SDS011;16392;52.508;13.468;2022-12-17T14:28:47;327.10;;;63.47;;
8562;SDS011;16392;52.508;13.468;2022-12-17T14:31:17;324.90;;;69.07;;
8562;SDS011;16392;52.508;13.468;2022-12-17T14:33:45;326.80;;;63.17;;
8562;SDS011;16392;52.508;13.468;2022-12-17T14:36:17;325.00;;;61.30;;
8562;SDS011;16392;52.508;13.468;2022-12-17T14:38:50;325.87;;;63.73;;
8562;SDS011;16392;52.508;13.468;2022-12-17T14:41:20;321.60;;;60.93;;
8562;SDS011;16392;52.508;13.468;2022-12-17T14:44:05;324.13;;;66.00;;
8562;SDS011;16392;52.508;13.468;2022-12-17T14:46:33;322.60;;;66.53;;
8562;SDS011;16392;52.508;13.468;2022-12-17T14:49:00;322.47;;;60.53;;
8562;SDS011;16392;52.508;13.468;2022-12-17T14:51:31;320.93;;;63.43;;
8562;SDS011;16392;52.508;13.468;2022-12-17T14:54:13;328.33;;;71.87;;
8562;SDS011;16392;52.508;13.468;2022-12-17T14:56:44;320.93;;;63.73;;
8562;SDS011;16392;52.508;13.468;2022-12-17T14:59:25;324.10;;;65.37;;
8562;SDS011;16392;52.508;13.468;2022-12-17T15:01:56;323.13;;;64.97;;
8562;SDS011;16392;52.508;13.468;2022-12-17T15:04:25;321.23;;;64.17;;
8562;SDS011;16392;52.508;13.468;2022-12-17T15:06:52;319.73;;;59.83;;
8562;SDS011;16392;52.508;13.468;2022-12-17T15:09:21;319.33;;;64.10;;
8562;SDS011;16392;52.508;13.468;2022-12-17T15:11:48;322.13;;;67.93;;
8562;SDS011;16392;52.508;13.468;2022-12-17T15:14:14;321.20;;;64.53;;
8562;SDS011;16392;52.508;13.468;2022-12-17T15:16:41;318.37;;;60.17;;
8562;SDS011;16392;52.508;13.468;2022-12-17T15:19:08;317.77;;;60.13;;
8562;SDS011;16392;52.508;13.468;2022-12-17T15:21:34;316.97;;;59.23;;
8562;SDS011;16392;52.508;13.468;2022-12-17T15:24:01;317.60;;;58.23;;
8562;SDS011;16392;52.508;13.468;2022-12-17T15:26:29;317.57;;;59.83;;
8562;SDS011;16392;52.508;13.468;2022-12-17T15:28:56;315.07;;;58.53;;
8562;SDS011;16392;52.508;13.468;2022-12-17T15:31:22;316.87;;;64.70;;
8562;SDS011;16392;52.508;13.468;2022-12-17T15:33:49;318.23;;;64.00;;
8562;SDS011;16392;52.508;13.468;2022-12-17T15:36:16;316.47;;;60.77;;
8562;SDS011;16392;52.508;13.468;2022-12-17T15:38:43;318.83;;;59.43;;
8562;SDS011;16392;52.508;13.468;2022-12-17T15:41:10;321.70;;;65.10;;
8562;SDS011;16392;52.508;13.468;2022-12-17T15:43:56;318.50;;;59.90;;
8562;SDS011;16392;52.508;13.468;2022-12-17T15:46:23;323.17;;;68.17;;
8562;SDS011;16392;52.508;13.468;2022-12-17T15:48:49;320.97;;;65.27;;